sensor_id;sensor_type;location;lat;lon;timestamp;P1;durP1;ratioP1;P2;durP2;ratioP2
3791;SDS011;1911;53.768;11.474;2023-02-19T00:01:16;7.45;;;4.70;;
3791;SDS011;1911;53.768;11.474;2023-02-19T00:03:49;13.57;;;5.05;;
3791;SDS011;1911;53.768;11.474;2023-02-19T00:06:23;9.48;;;4.75;;
3791;SDS011;1911;53.768;11.474;2023-02-19T00:08:50;15.88;;;5.50;;
3791;SDS011;1911;53.768;11.474;2023-02-19T00:11:19;8.97;;;4.70;;
3791;SDS011;1911;53.768;11.474;2023-02-19T00:13:48;11.23;;;4.22;;
3791;SDS011;1911;53.768;11.474;2023-02-19T00:16:16;10.88;;;4.25;;
3791;SDS011;1911;53.768;11.474;2023-02-19T00:18:44;16.60;;;5.70;;
3791;SDS011;1911;53.768;11.474;2023-02-19T00:21:10;15.30;;;4.80;;
3791;SDS011;1911;53.768;11.474;2023-02-19T00:23:36;16.73;;;5.37;;
3791;SDS011;1911;53.768;11.474;2023-02-19T00:26:02;11.53;;;6.10;;
3791;SDS011;1911;53.768;11.474;2023-02-19T00:28:28;12.43;;;5.55;;
3791;SDS011;1911;53.768;11.474;2023-02-19T00:30:54;10.70;;;4.60;;
3791;SDS011;1911;53.768;11.474;2023-02-19T00:33:20;8.97;;;5.17;;
3791;SDS011;1911;53.768;11.474;2023-02-19T00:35:45;16.00;;;5.53;;
3791;SDS011;1911;53.768;11.474;2023-02-19T00:38:11;13.20;;;5.47;;
3791;SDS011;1911;53.768;11.474;2023-02-19T00:40:37;16.80;;;5.53;;
3791;SDS011;1911;53.768;11.474;2023-02-19T00:43:03;12.10;;;5.03;;
3791;SDS011;1911;53.768;11.474;2023-02-19T00:45:28;7.10;;;5.10;;
3791;SDS011;1911;53.768;11.474;2023-02-19T00:47:54;13.40;;;5.30;;
3791;SDS011;1911;53.768;11.474;2023-02-19T00:50:20;12.70;;;5.10;;
3791;SDS011;1911;53.768;11.474;2023-02-19T00:52:46;16.03;;;6.80;;
3791;SDS011;1911;53.768;11.474;2023-02-19T00:55:11;19.20;;;6.60;;
3791;SDS011;1911;53.768;11.474;2023-02-19T00:57:37;15.40;;;6.67;;
3791;SDS011;1911;53.768;11.474;2023-02-19T01:00:03;17.40;;;6.07;;
3791;SDS011;1911;53.768;11.474;2023-02-19T01:02:30;12.13;;;5.03;;
3791;SDS011;1911;53.768;11.474;2023-02-19T01:04:56;17.87;;;7.07;;
3791;SDS011;1911;53.768;11.474;2023-02-19T01:07:21;22.77;;;6.80;;
3791;SDS011;1911;53.768;11.474;2023-02-19T01:09:48;12.63;;;6.40;;
3791;SDS011;1911;53.768;11.474;2023-02-19T01:12:13;21.00;;;7.57;;
3791;SDS011;1911;53.768;11.474;2023-02-19T01:14:39;22.77;;;6.30;;
3791;SDS011;1911;53.768;11.474;2023-02-19T01:17:05;21.27;;;8.60;;
3791;SDS011;1911;53.768;11.474;2023-02-19T01:19:30;15.23;;;7.83;;
3791;SDS011;1911;53.768;11.474;2023-02-19T01:21:56;19.40;;;8.43;;
3791;SDS011;1911;53.768;11.474;2023-02-19T01:24:21;16.30;;;8.30;;
3791;SDS011;1911;53.768;11.474;2023-02-19T01:26:47;17.23;;;7.70;;
3791;SDS011;1911;53.768;11.474;2023-02-19T01:29:12;18.90;;;8.93;;
3791;SDS011;1911;53.768;11.474;2023-02-19T01:31:38;16.80;;;8.63;;
3791;SDS011;1911;53.768;11.474;2023-02-19T01:34:06;18.07;;;8.23;;
3791;SDS011;1911;53.768;11.474;2023-02-19T01:36:33;14.50;;;7.35;;
3791;SDS011;1911;53.768;11.474;2023-02-19T01:39:01;19.10;;;6.97;;
3791;SDS011;1911;53.768;11.474;2023-02-19T01:41:29;27.53;;;8.40;;
3791;SDS011;1911;53.768;11.474;2023-02-19T01:43:59;20.87;;;7.67;;
3791;SDS011;1911;53.768;11.474;2023-02-19T01:46:28;18.17;;;6.97;;
3791;SDS011;1911;53.768;11.474;2023-02-19T01:49:07;15.40;;;7.03;;
3791;SDS011;1911;53.768;11.474;2023-02-19T01:51:41;15.55;;;8.20;;
3791;SDS011;1911;53.768;11.474;2023-02-19T01:54:10;14.70;;;7.60;;
3791;SDS011;1911;53.768;11.474;2023-02-19T01:56:38;16.43;;;6.30;;
3791;SDS011;1911;53.768;11.474;2023-02-19T02:01:41;14.60;;;7.38;;
3791;SDS011;1911;53.768;11.474;2023-02-19T02:04:45;17.83;;;7.20;;
3791;SDS011;1911;53.768;11.474;2023-02-19T02:07:40;19.45;;;7.22;;
3791;SDS011;1911;53.768;11.474;2023-02-19T02:10:24;15.02;;;6.47;;
3791;SDS011;1911;53.768;11.474;2023-02-19T02:12:55;10.80;;;6.40;;
3791;SDS011;1911;53.768;11.474;2023-02-19T02:15:21;16.58;;;7.22;;
3791;SDS011;1911;53.768;11.474;2023-02-19T02:17:58;14.67;;;7.07;;
3791;SDS011;1911;53.768;11.474;2023-02-19T02:26:24;13.87;;;7.00;;
3791;SDS011;1911;53.768;11.474;2023-02-19T02:31:38;10.20;;;5.30;;
3791;SDS011;1911;53.768;11.474;2023-02-19T02:34:14;13.30;;;6.60;;
3791;SDS011;1911;53.768;11.474;2023-02-19T02:37:19;12.48;;;6.28;;
3791;SDS011;1911;53.768;11.474;2023-02-19T02:39:47;14.93;;;4.17;;
3791;SDS011;1911;53.768;11.474;2023-02-19T02:42:13;15.30;;;5.57;;
3791;SDS011;1911;53.768;11.474;2023-02-19T02:44:51;13.27;;;4.40;;
3791;SDS011;1911;53.768;11.474;2023-02-19T02:47:58;7.78;;;4.25;;
3791;SDS011;1911;53.768;11.474;2023-02-19T02:50:27;7.73;;;3.90;;
3791;SDS011;1911;53.768;11.474;2023-02-19T02:52:59;9.53;;;4.20;;
3791;SDS011;1911;53.768;11.474;2023-02-19T02:55:48;11.10;;;4.00;;
3791;SDS011;1911;53.768;11.474;2023-02-19T02:58:17;10.10;;;4.23;;
3791;SDS011;1911;53.768;11.474;2023-02-19T03:00:46;9.48;;;5.05;;
3791;SDS011;1911;53.768;11.474;2023-02-19T03:03:37;8.30;;;3.37;;
3791;SDS011;1911;53.768;11.474;2023-02-19T03:06:06;7.78;;;3.00;;
3791;SDS011;1911;53.768;11.474;2023-02-19T03:08:34;7.95;;;3.50;;
3791;SDS011;1911;53.768;11.474;2023-02-19T03:11:08;7.60;;;4.07;;
3791;SDS011;1911;53.768;11.474;2023-02-19T03:14:04;14.63;;;4.07;;
3791;SDS011;1911;53.768;11.474;2023-02-19T03:16:59;14.95;;;4.70;;
3791;SDS011;1911;53.768;11.474;2023-02-19T03:19:51;9.23;;;3.42;;
3791;SDS011;1911;53.768;11.474;2023-02-19T03:22:24;9.98;;;3.30;;
3791;SDS011;1911;53.768;11.474;2023-02-19T03:25:01;10.95;;;3.45;;
3791;SDS011;1911;53.768;11.474;2023-02-19T03:27:52;12.23;;;4.37;;
3791;SDS011;1911;53.768;11.474;2023-02-19T03:30:22;7.50;;;3.57;;
3791;SDS011;1911;53.768;11.474;2023-02-19T03:32:54;6.40;;;2.67;;
3791;SDS011;1911;53.768;11.474;2023-02-19T03:35:30;12.93;;;3.40;;
3791;SDS011;1911;53.768;11.474;2023-02-19T03:38:06;4.53;;;3.33;;
3791;SDS011;1911;53.768;11.474;2023-02-19T03:40:51;7.60;;;3.70;;
3791;SDS011;1911;53.768;11.474;2023-02-19T03:44:12;8.20;;;3.20;;
3791;SDS011;1911;53.768;11.474;2023-02-19T03:49:14;17.38;;;3.55;;
3791;SDS011;1911;53.768;11.474;2023-02-19T03:57:27;5.00;;;2.20;;
3791;SDS011;1911;53.768;11.474;2023-02-19T04:00:25;4.80;;;2.40;;
3791;SDS011;1911;53.768;11.474;2023-02-19T04:05:46;4.73;;;1.80;;
3791;SDS011;1911;53.768;11.474;2023-02-19T04:08:16;6.22;;;2.25;;
3791;SDS011;1911;53.768;11.474;2023-02-19T04:10:45;12.63;;;2.10;;
3791;SDS011;1911;53.768;11.474;2023-02-19T04:13:22;6.80;;;2.17;;
3791;SDS011;1911;53.768;11.474;2023-02-19T04:15:55;4.05;;;1.77;;
3791;SDS011;1911;53.768;11.474;2023-02-19T04:18:30;5.35;;;1.73;;
3791;SDS011;1911;53.768;11.474;2023-02-19T04:20:59;7.30;;;2.53;;
3791;SDS011;1911;53.768;11.474;2023-02-19T04:23:27;2.47;;;1.55;;
3791;SDS011;1911;53.768;11.474;2023-02-19T04:25:58;7.90;;;2.30;;
3791;SDS011;1911;53.768;11.474;2023-02-19T04:28:25;10.57;;;2.22;;
3791;SDS011;1911;53.768;11.474;2023-02-19T04:30:52;8.10;;;3.25;;
3791;SDS011;1911;53.768;11.474;2023-02-19T04:33:17;3.13;;;1.50;;
3791;SDS011;1911;53.768;11.474;2023-02-19T04:35:43;7.50;;;1.80;;
3791;SDS011;1911;53.768;11.474;2023-02-19T04:38:09;8.70;;;2.00;;
3791;SDS011;1911;53.768;11.474;2023-02-19T04:40:34;4.97;;;2.50;;
3791;SDS011;1911;53.768;11.474;2023-02-19T04:43:00;7.77;;;1.73;;
3791;SDS011;1911;53.768;11.474;2023-02-19T04:45:25;5.03;;;1.90;;
3791;SDS011;1911;53.768;11.474;2023-02-19T04:47:51;3.53;;;1.43;;
3791;SDS011;1911;53.768;11.474;2023-02-19T04:50:17;4.33;;;2.03;;
3791;SDS011;1911;53.768;11.474;2023-02-19T04:52:42;4.10;;;1.90;;
3791;SDS011;1911;53.768;11.474;2023-02-19T04:55:08;6.60;;;2.10;;
3791;SDS011;1911;53.768;11.474;2023-02-19T04:57:34;3.67;;;1.67;;
3791;SDS011;1911;53.768;11.474;2023-02-19T04:59:59;6.60;;;2.20;;
3791;SDS011;1911;53.768;11.474;2023-02-19T05:02:25;9.43;;;2.07;;
3791;SDS011;1911;53.768;11.474;2023-02-19T05:04:51;7.10;;;2.13;;
3791;SDS011;1911;53.768;11.474;2023-02-19T05:07:16;9.13;;;2.23;;
3791;SDS011;1911;53.768;11.474;2023-02-19T05:09:42;8.23;;;2.60;;
3791;SDS011;1911;53.768;11.474;2023-02-19T05:12:08;7.37;;;2.63;;
3791;SDS011;1911;53.768;11.474;2023-02-19T05:14:33;15.20;;;2.47;;
3791;SDS011;1911;53.768;11.474;2023-02-19T05:16:59;3.63;;;2.00;;
3791;SDS011;1911;53.768;11.474;2023-02-19T05:19:24;4.73;;;1.90;;
3791;SDS011;1911;53.768;11.474;2023-02-19T05:21:50;7.23;;;2.20;;
3791;SDS011;1911;53.768;11.474;2023-02-19T05:24:16;7.73;;;2.60;;
3791;SDS011;1911;53.768;11.474;2023-02-19T05:26:41;4.70;;;2.17;;
3791;SDS011;1911;53.768;11.474;2023-02-19T05:29:07;7.30;;;3.00;;
3791;SDS011;1911;53.768;11.474;2023-02-19T05:31:32;10.00;;;3.33;;
3791;SDS011;1911;53.768;11.474;2023-02-19T05:33:58;7.67;;;2.30;;
3791;SDS011;1911;53.768;11.474;2023-02-19T05:36:24;6.83;;;2.30;;
3791;SDS011;1911;53.768;11.474;2023-02-19T05:38:51;8.85;;;3.42;;
3791;SDS011;1911;53.768;11.474;2023-02-19T05:41:25;6.97;;;2.17;;
3791;SDS011;1911;53.768;11.474;2023-02-19T05:43:52;3.25;;;1.90;;
3791;SDS011;1911;53.768;11.474;2023-02-19T05:46:19;8.57;;;2.75;;
3791;SDS011;1911;53.768;11.474;2023-02-19T05:48:47;4.20;;;2.83;;
3791;SDS011;1911;53.768;11.474;2023-02-19T05:51:17;5.00;;;2.00;;
3791;SDS011;1911;53.768;11.474;2023-02-19T05:53:44;6.63;;;2.22;;
3791;SDS011;1911;53.768;11.474;2023-02-19T05:56:28;13.00;;;2.20;;
3791;SDS011;1911;53.768;11.474;2023-02-19T05:59:13;8.38;;;3.30;;
3791;SDS011;1911;53.768;11.474;2023-02-19T06:01:47;8.70;;;2.53;;
3791;SDS011;1911;53.768;11.474;2023-02-19T06:04:13;3.55;;;2.20;;
3791;SDS011;1911;53.768;11.474;2023-02-19T06:06:40;6.40;;;2.23;;
3791;SDS011;1911;53.768;11.474;2023-02-19T06:09:06;11.93;;;2.20;;
3791;SDS011;1911;53.768;11.474;2023-02-19T06:11:32;5.10;;;1.45;;
3791;SDS011;1911;53.768;11.474;2023-02-19T06:13:58;4.57;;;1.73;;
3791;SDS011;1911;53.768;11.474;2023-02-19T06:16:24;11.20;;;2.70;;
3791;SDS011;1911;53.768;11.474;2023-02-19T06:18:50;3.90;;;1.87;;
3791;SDS011;1911;53.768;11.474;2023-02-19T06:21:15;8.90;;;2.10;;
3791;SDS011;1911;53.768;11.474;2023-02-19T06:23:42;9.15;;;1.70;;
3791;SDS011;1911;53.768;11.474;2023-02-19T06:26:09;7.57;;;2.30;;
3791;SDS011;1911;53.768;11.474;2023-02-19T06:28:37;7.20;;;2.50;;
3791;SDS011;1911;53.768;11.474;2023-02-19T06:31:04;4.20;;;1.50;;
3791;SDS011;1911;53.768;11.474;2023-02-19T06:33:31;6.50;;;1.75;;
3791;SDS011;1911;53.768;11.474;2023-02-19T06:35:57;7.03;;;1.85;;
3791;SDS011;1911;53.768;11.474;2023-02-19T06:38:24;4.32;;;1.23;;
3791;SDS011;1911;53.768;11.474;2023-02-19T06:40:50;4.10;;;1.60;;
3791;SDS011;1911;53.768;11.474;2023-02-19T06:43:16;13.07;;;2.33;;
3791;SDS011;1911;53.768;11.474;2023-02-19T06:45:42;7.60;;;3.93;;
3791;SDS011;1911;53.768;11.474;2023-02-19T06:48:07;5.73;;;2.00;;
3791;SDS011;1911;53.768;11.474;2023-02-19T06:50:33;3.73;;;1.30;;
3791;SDS011;1911;53.768;11.474;2023-02-19T06:52:58;6.00;;;1.53;;
3791;SDS011;1911;53.768;11.474;2023-02-19T06:55:24;4.33;;;1.63;;
3791;SDS011;1911;53.768;11.474;2023-02-19T06:57:49;7.17;;;2.07;;
3791;SDS011;1911;53.768;11.474;2023-02-19T07:00:15;3.30;;;1.40;;
3791;SDS011;1911;53.768;11.474;2023-02-19T07:02:41;7.30;;;1.80;;
3791;SDS011;1911;53.768;11.474;2023-02-19T07:05:06;5.97;;;1.90;;
3791;SDS011;1911;53.768;11.474;2023-02-19T07:07:32;3.00;;;1.33;;
3791;SDS011;1911;53.768;11.474;2023-02-19T07:09:57;7.60;;;1.33;;
3791;SDS011;1911;53.768;11.474;2023-02-19T07:12:23;5.23;;;2.13;;
3791;SDS011;1911;53.768;11.474;2023-02-19T07:14:49;2.50;;;1.20;;
3791;SDS011;1911;53.768;11.474;2023-02-19T07:17:14;15.90;;;2.37;;
3791;SDS011;1911;53.768;11.474;2023-02-19T07:19:40;12.70;;;1.60;;
3791;SDS011;1911;53.768;11.474;2023-02-19T07:22:05;6.50;;;1.80;;
3791;SDS011;1911;53.768;11.474;2023-02-19T07:24:31;5.57;;;3.30;;
3791;SDS011;1911;53.768;11.474;2023-02-19T07:26:56;5.17;;;1.40;;
3791;SDS011;1911;53.768;11.474;2023-02-19T07:29:22;7.93;;;1.40;;
3791;SDS011;1911;53.768;11.474;2023-02-19T07:31:48;17.17;;;2.30;;
3791;SDS011;1911;53.768;11.474;2023-02-19T07:34:13;11.43;;;2.57;;
3791;SDS011;1911;53.768;11.474;2023-02-19T07:36:39;19.97;;;2.63;;
3791;SDS011;1911;53.768;11.474;2023-02-19T07:39:04;6.20;;;1.73;;
3791;SDS011;1911;53.768;11.474;2023-02-19T07:41:30;4.50;;;1.10;;
3791;SDS011;1911;53.768;11.474;2023-02-19T07:43:56;3.60;;;1.03;;
3791;SDS011;1911;53.768;11.474;2023-02-19T07:46:22;5.57;;;1.58;;
3791;SDS011;1911;53.768;11.474;2023-02-19T07:48:48;2.20;;;1.47;;
3791;SDS011;1911;53.768;11.474;2023-02-19T07:51:14;2.70;;;1.40;;
3791;SDS011;1911;53.768;11.474;2023-02-19T07:53:43;7.10;;;1.60;;
3791;SDS011;1911;53.768;11.474;2023-02-19T07:56:15;4.67;;;1.50;;
3791;SDS011;1911;53.768;11.474;2023-02-19T07:58:42;4.72;;;1.13;;
3791;SDS011;1911;53.768;11.474;2023-02-19T11:58:58;4.37;;;1.03;;
3791;SDS011;1911;53.768;11.474;2023-02-19T12:10:24;2.93;;;0.70;;
3791;SDS011;1911;53.768;11.474;2023-02-19T12:27:03;1.10;;;0.60;;
3791;SDS011;1911;53.768;11.474;2023-02-19T12:29:55;2.57;;;0.60;;
3791;SDS011;1911;53.768;11.474;2023-02-19T12:38:21;2.17;;;0.70;;
3791;SDS011;1911;53.768;11.474;2023-02-19T12:43:53;5.70;;;0.77;;
3791;SDS011;1911;53.768;11.474;2023-02-19T12:46:31;2.13;;;0.97;;
3791;SDS011;1911;53.768;11.474;2023-02-19T12:54:50;3.80;;;0.90;;
3791;SDS011;1911;53.768;11.474;2023-02-19T12:57:25;1.33;;;0.70;;
3791;SDS011;1911;53.768;11.474;2023-02-19T12:59:56;6.03;;;0.80;;
3791;SDS011;1911;53.768;11.474;2023-02-19T13:02:40;1.83;;;0.60;;
3791;SDS011;1911;53.768;11.474;2023-02-19T13:05:24;3.37;;;0.73;;
3791;SDS011;1911;53.768;11.474;2023-02-19T13:07:58;2.20;;;0.70;;
3791;SDS011;1911;53.768;11.474;2023-02-19T13:13:24;1.73;;;0.57;;
3791;SDS011;1911;53.768;11.474;2023-02-19T13:16:13;4.60;;;0.80;;
3791;SDS011;1911;53.768;11.474;2023-02-19T13:18:43;1.33;;;0.70;;
3791;SDS011;1911;53.768;11.474;2023-02-19T13:21:12;1.77;;;0.63;;
3791;SDS011;1911;53.768;11.474;2023-02-19T13:24:02;2.33;;;0.67;;
3791;SDS011;1911;53.768;11.474;2023-02-19T13:26:45;2.20;;;0.73;;
3791;SDS011;1911;53.768;11.474;2023-02-19T13:35:15;1.47;;;0.70;;
3791;SDS011;1911;53.768;11.474;2023-02-19T13:37:49;1.63;;;0.50;;
3791;SDS011;1911;53.768;11.474;2023-02-19T13:43:04;2.17;;;0.57;;
3791;SDS011;1911;53.768;11.474;2023-02-19T13:47:58;1.57;;;0.73;;
3791;SDS011;1911;53.768;11.474;2023-02-19T13:50:27;2.53;;;0.80;;
3791;SDS011;1911;53.768;11.474;2023-02-19T13:52:57;1.33;;;0.60;;
3791;SDS011;1911;53.768;11.474;2023-02-19T14:06:02;1.13;;;0.50;;
3791;SDS011;1911;53.768;11.474;2023-02-19T14:11:15;1.73;;;0.60;;
3791;SDS011;1911;53.768;11.474;2023-02-19T14:18:55;1.90;;;1.00;;
3791;SDS011;1911;53.768;11.474;2023-02-19T14:21:37;1.70;;;0.70;;
3791;SDS011;1911;53.768;11.474;2023-02-19T14:24:04;1.57;;;0.80;;
3791;SDS011;1911;53.768;11.474;2023-02-19T14:26:35;3.47;;;0.80;;
3791;SDS011;1911;53.768;11.474;2023-02-19T14:29:02;1.67;;;0.60;;
3791;SDS011;1911;53.768;11.474;2023-02-19T14:31:37;5.37;;;0.80;;
3791;SDS011;1911;53.768;11.474;2023-02-19T14:34:04;2.63;;;0.70;;
3791;SDS011;1911;53.768;11.474;2023-02-19T14:36:43;1.30;;;0.70;;
3791;SDS011;1911;53.768;11.474;2023-02-19T14:41:47;2.60;;;1.20;;
3791;SDS011;1911;53.768;11.474;2023-02-19T14:44:29;3.00;;;0.67;;
3791;SDS011;1911;53.768;11.474;2023-02-19T14:47:06;1.47;;;0.70;;
3791;SDS011;1911;53.768;11.474;2023-02-19T14:49:44;3.20;;;0.77;;
3791;SDS011;1911;53.768;11.474;2023-02-19T14:54:50;4.10;;;0.80;;
3791;SDS011;1911;53.768;11.474;2023-02-19T14:57:39;8.17;;;1.70;;
3791;SDS011;1911;53.768;11.474;2023-02-19T15:03:04;14.47;;;1.17;;
3791;SDS011;1911;53.768;11.474;2023-02-19T15:05:52;3.60;;;1.80;;
3791;SDS011;1911;53.768;11.474;2023-02-19T15:08:35;5.90;;;3.97;;
3791;SDS011;1911;53.768;11.474;2023-02-19T15:11:08;4.90;;;0.80;;
3791;SDS011;1911;53.768;11.474;2023-02-19T15:13:39;4.03;;;1.10;;
3791;SDS011;1911;53.768;11.474;2023-02-19T15:16:09;4.03;;;0.70;;
3791;SDS011;1911;53.768;11.474;2023-02-19T15:18:44;2.20;;;0.70;;
3791;SDS011;1911;53.768;11.474;2023-02-19T15:23:54;6.10;;;1.10;;
3791;SDS011;1911;53.768;11.474;2023-02-19T15:26:22;4.00;;;1.00;;
3791;SDS011;1911;53.768;11.474;2023-02-19T15:29:00;1.53;;;0.80;;
3791;SDS011;1911;53.768;11.474;2023-02-19T15:31:34;4.60;;;1.17;;
3791;SDS011;1911;53.768;11.474;2023-02-19T15:34:00;3.63;;;1.10;;
3791;SDS011;1911;53.768;11.474;2023-02-19T15:36:30;2.63;;;0.90;;
3791;SDS011;1911;53.768;11.474;2023-02-19T15:38:59;2.47;;;0.90;;
3791;SDS011;1911;53.768;11.474;2023-02-19T15:41:27;1.70;;;0.60;;
3791;SDS011;1911;53.768;11.474;2023-02-19T15:44:09;3.20;;;0.90;;
3791;SDS011;1911;53.768;11.474;2023-02-19T15:46:38;6.30;;;1.20;;
3791;SDS011;1911;53.768;11.474;2023-02-19T15:51:40;2.57;;;0.80;;
3791;SDS011;1911;53.768;11.474;2023-02-19T15:54:16;1.93;;;1.03;;
3791;SDS011;1911;53.768;11.474;2023-02-19T15:56:59;4.20;;;0.70;;
3791;SDS011;1911;53.768;11.474;2023-02-19T16:01:54;2.27;;;0.80;;
3791;SDS011;1911;53.768;11.474;2023-02-19T16:04:20;2.00;;;0.90;;
3791;SDS011;1911;53.768;11.474;2023-02-19T16:07:04;1.30;;;0.70;;
3791;SDS011;1911;53.768;11.474;2023-02-19T16:09:39;2.50;;;1.07;;
3791;SDS011;1911;53.768;11.474;2023-02-19T16:12:20;4.43;;;1.00;;
3791;SDS011;1911;53.768;11.474;2023-02-19T16:14:47;2.37;;;0.80;;
3791;SDS011;1911;53.768;11.474;2023-02-19T16:17:15;3.97;;;0.90;;
3791;SDS011;1911;53.768;11.474;2023-02-19T16:19:51;2.40;;;1.10;;
3791;SDS011;1911;53.768;11.474;2023-02-19T16:22:25;4.43;;;1.10;;
3791;SDS011;1911;53.768;11.474;2023-02-19T16:25:04;2.30;;;1.00;;
3791;SDS011;1911;53.768;11.474;2023-02-19T16:27:32;7.50;;;1.00;;
3791;SDS011;1911;53.768;11.474;2023-02-19T16:35:55;4.20;;;1.27;;
3791;SDS011;1911;53.768;11.474;2023-02-19T16:38:21;3.90;;;1.13;;
3791;SDS011;1911;53.768;11.474;2023-02-19T16:43:23;9.50;;;1.70;;
3791;SDS011;1911;53.768;11.474;2023-02-19T16:45:55;2.63;;;0.90;;
3791;SDS011;1911;53.768;11.474;2023-02-19T16:48:21;3.67;;;1.50;;
3791;SDS011;1911;53.768;11.474;2023-02-19T16:50:47;1.50;;;0.70;;
3791;SDS011;1911;53.768;11.474;2023-02-19T16:53:17;16.50;;;2.47;;
3791;SDS011;1911;53.768;11.474;2023-02-19T16:55:44;3.40;;;1.00;;
3791;SDS011;1911;53.768;11.474;2023-02-19T16:58:10;6.40;;;1.50;;
3791;SDS011;1911;53.768;11.474;2023-02-19T17:00:36;2.40;;;1.10;;
3791;SDS011;1911;53.768;11.474;2023-02-19T17:03:03;3.10;;;1.93;;
3791;SDS011;1911;53.768;11.474;2023-02-19T17:05:33;7.00;;;1.50;;
3791;SDS011;1911;53.768;11.474;2023-02-19T17:08:01;5.10;;;1.37;;
3791;SDS011;1911;53.768;11.474;2023-02-19T17:10:49;7.80;;;1.57;;
3791;SDS011;1911;53.768;11.474;2023-02-19T17:13:14;10.77;;;1.47;;
3791;SDS011;1911;53.768;11.474;2023-02-19T17:15:42;2.30;;;1.40;;
3791;SDS011;1911;53.768;11.474;2023-02-19T17:18:09;5.67;;;1.20;;
3791;SDS011;1911;53.768;11.474;2023-02-19T17:20:36;3.83;;;1.27;;
3791;SDS011;1911;53.768;11.474;2023-02-19T17:23:02;5.53;;;1.80;;
3791;SDS011;1911;53.768;11.474;2023-02-19T17:25:28;1.80;;;1.30;;
3791;SDS011;1911;53.768;11.474;2023-02-19T17:27:53;2.70;;;1.33;;
3791;SDS011;1911;53.768;11.474;2023-02-19T17:32:55;3.70;;;1.83;;
3791;SDS011;1911;53.768;11.474;2023-02-19T17:35:21;9.10;;;3.17;;
3791;SDS011;1911;53.768;11.474;2023-02-19T17:37:47;8.17;;;2.57;;
3791;SDS011;1911;53.768;11.474;2023-02-19T17:40:26;12.30;;;2.97;;
3791;SDS011;1911;53.768;11.474;2023-02-19T17:42:56;6.77;;;1.60;;
3791;SDS011;1911;53.768;11.474;2023-02-19T17:45:21;2.73;;;1.60;;
3791;SDS011;1911;53.768;11.474;2023-02-19T17:47:48;9.80;;;2.57;;
3791;SDS011;1911;53.768;11.474;2023-02-19T17:50:15;3.77;;;2.27;;
3791;SDS011;1911;53.768;11.474;2023-02-19T17:52:43;3.43;;;2.23;;
3791;SDS011;1911;53.768;11.474;2023-02-19T17:55:11;7.17;;;3.60;;
3791;SDS011;1911;53.768;11.474;2023-02-19T17:57:39;9.07;;;2.57;;
3791;SDS011;1911;53.768;11.474;2023-02-19T18:00:06;9.60;;;3.30;;
3791;SDS011;1911;53.768;11.474;2023-02-19T18:02:31;7.57;;;3.17;;
3791;SDS011;1911;53.768;11.474;2023-02-19T18:04:57;6.93;;;2.70;;
3791;SDS011;1911;53.768;11.474;2023-02-19T18:07:23;5.30;;;2.80;;
3791;SDS011;1911;53.768;11.474;2023-02-19T18:09:48;11.30;;;3.30;;
3791;SDS011;1911;53.768;11.474;2023-02-19T18:12:14;5.80;;;2.50;;
3791;SDS011;1911;53.768;11.474;2023-02-19T18:14:39;6.13;;;2.77;;
3791;SDS011;1911;53.768;11.474;2023-02-19T18:17:05;8.83;;;4.13;;
3791;SDS011;1911;53.768;11.474;2023-02-19T18:19:31;14.63;;;5.47;;
3791;SDS011;1911;53.768;11.474;2023-02-19T18:21:56;14.80;;;4.83;;
3791;SDS011;1911;53.768;11.474;2023-02-19T18:24:22;14.77;;;6.10;;
3791;SDS011;1911;53.768;11.474;2023-02-19T18:26:47;6.33;;;4.20;;
3791;SDS011;1911;53.768;11.474;2023-02-19T18:29:13;5.43;;;3.20;;
3791;SDS011;1911;53.768;11.474;2023-02-19T18:31:39;21.63;;;5.10;;
3791;SDS011;1911;53.768;11.474;2023-02-19T18:34:04;15.03;;;4.93;;
3791;SDS011;1911;53.768;11.474;2023-02-19T18:36:30;11.23;;;3.80;;
3791;SDS011;1911;53.768;11.474;2023-02-19T18:38:56;3.27;;;2.70;;
3791;SDS011;1911;53.768;11.474;2023-02-19T18:41:22;7.60;;;2.57;;
3791;SDS011;1911;53.768;11.474;2023-02-19T18:43:48;4.90;;;2.33;;
3791;SDS011;1911;53.768;11.474;2023-02-19T18:46:14;7.13;;;2.57;;
3791;SDS011;1911;53.768;11.474;2023-02-19T18:48:43;4.17;;;2.67;;
3791;SDS011;1911;53.768;11.474;2023-02-19T18:51:09;6.10;;;2.77;;
3791;SDS011;1911;53.768;11.474;2023-02-19T18:53:35;6.67;;;2.20;;
3791;SDS011;1911;53.768;11.474;2023-02-19T18:56:00;6.60;;;3.53;;
3791;SDS011;1911;53.768;11.474;2023-02-19T18:58:29;7.90;;;3.97;;
3791;SDS011;1911;53.768;11.474;2023-02-19T19:00:55;5.53;;;2.70;;
3791;SDS011;1911;53.768;11.474;2023-02-19T19:03:21;4.90;;;2.70;;
3791;SDS011;1911;53.768;11.474;2023-02-19T19:05:47;6.40;;;2.03;;
3791;SDS011;1911;53.768;11.474;2023-02-19T19:08:12;5.50;;;2.00;;
3791;SDS011;1911;53.768;11.474;2023-02-19T19:10:38;7.80;;;2.67;;
3791;SDS011;1911;53.768;11.474;2023-02-19T19:13:03;6.77;;;2.37;;
3791;SDS011;1911;53.768;11.474;2023-02-19T19:15:30;6.20;;;3.03;;
3791;SDS011;1911;53.768;11.474;2023-02-19T19:17:56;7.70;;;2.47;;
3791;SDS011;1911;53.768;11.474;2023-02-19T19:20:22;4.07;;;1.50;;
3791;SDS011;1911;53.768;11.474;2023-02-19T19:22:48;7.83;;;2.20;;
3791;SDS011;1911;53.768;11.474;2023-02-19T19:25:15;6.67;;;1.60;;
3791;SDS011;1911;53.768;11.474;2023-02-19T19:27:41;7.17;;;2.17;;
3791;SDS011;1911;53.768;11.474;2023-02-19T19:30:14;5.87;;;1.63;;
3791;SDS011;1911;53.768;11.474;2023-02-19T19:32:40;6.60;;;1.57;;
3791;SDS011;1911;53.768;11.474;2023-02-19T19:35:06;4.27;;;1.40;;
3791;SDS011;1911;53.768;11.474;2023-02-19T19:37:32;6.30;;;1.73;;
3791;SDS011;1911;53.768;11.474;2023-02-19T19:39:58;2.80;;;1.60;;
3791;SDS011;1911;53.768;11.474;2023-02-19T19:42:23;11.07;;;2.07;;
3791;SDS011;1911;53.768;11.474;2023-02-19T19:44:49;2.60;;;1.13;;
3791;SDS011;1911;53.768;11.474;2023-02-19T19:47:15;5.80;;;1.73;;
3791;SDS011;1911;53.768;11.474;2023-02-19T19:49:41;2.70;;;1.23;;
3791;SDS011;1911;53.768;11.474;2023-02-19T19:52:07;4.97;;;1.40;;
3791;SDS011;1911;53.768;11.474;2023-02-19T19:54:35;4.30;;;1.50;;
3791;SDS011;1911;53.768;11.474;2023-02-19T19:57:01;6.00;;;1.47;;
3791;SDS011;1911;53.768;11.474;2023-02-19T19:59:26;3.10;;;1.30;;
